createdAt,value
2022-10-13T05:42:59.437Z,9.80
2022-10-13T05:45:30.605Z,10.55
2022-10-13T05:47:58.659Z,8.80
2022-10-13T05:50:26.938Z,7.25
2022-10-13T05:52:55.152Z,11.07
2022-10-13T05:55:23.271Z,10.02
2022-10-13T05:57:53.151Z,7.45
2022-10-13T06:00:22.640Z,10.23
2022-10-13T06:02:54.891Z,8.68
2022-10-13T06:05:25.691Z,7.38
2022-10-13T06:07:55.426Z,8.60
2022-10-13T06:10:24.609Z,9.35
2022-10-13T06:12:52.845Z,7.55
2022-10-13T06:15:27.838Z,7.88
2022-10-13T06:17:56.362Z,8.70
2022-10-13T06:20:24.443Z,13.50
2022-10-13T06:22:52.531Z,10.38
2022-10-13T06:25:20.635Z,7.50
2022-10-13T06:27:48.752Z,10.57
2022-10-13T06:30:16.922Z,11.00
2022-10-13T06:32:46.407Z,10.45
2022-10-13T06:35:14.683Z,9.02
2022-10-13T06:37:42.964Z,10.48
2022-10-13T06:40:12.194Z,10.23
2022-10-13T06:42:40.428Z,7.38
2022-10-13T06:45:09.282Z,12.60
2022-10-13T06:47:37.363Z,7.43
2022-10-13T06:50:07.518Z,12.35
2022-10-13T06:52:35.615Z,8.07
2022-10-13T06:55:03.705Z,9.80
2022-10-13T06:57:31.830Z,9.18
2022-10-13T06:59:59.919Z,7.32
2022-10-13T07:02:28.065Z,8.13
2022-10-13T07:04:56.131Z,7.82
2022-10-13T07:07:25.665Z,10.13
2022-10-13T07:09:53.769Z,8.63
2022-10-13T07:12:22.489Z,7.18
2022-10-13T07:14:50.772Z,11.90
2022-10-13T07:17:19.102Z,10.65
2022-10-13T07:19:48.635Z,10.90
2022-10-13T07:22:16.967Z,8.25
2022-10-13T07:24:46.399Z,8.85
2022-10-13T07:27:14.476Z,9.52
2022-10-13T07:29:42.837Z,9.23
2022-10-13T07:32:10.894Z,6.90
2022-10-13T07:34:38.994Z,8.27
2022-10-13T07:37:07.070Z,6.93
2022-10-13T07:39:35.156Z,8.43
2022-10-13T07:42:04.775Z,8.00
2022-10-13T07:44:32.829Z,8.18
2022-10-13T07:47:00.921Z,8.13
2022-10-13T07:49:29.011Z,7.43
2022-10-13T07:51:57.175Z,15.00
2022-10-13T07:54:27.481Z,6.82
2022-10-13T07:56:56.750Z,6.85
2022-10-13T07:59:26.379Z,7.15
2022-10-13T08:01:54.528Z,9.50
2022-10-13T08:04:22.650Z,8.85
2022-10-13T08:06:50.772Z,7.65
2022-10-13T08:09:18.902Z,7.68
2022-10-13T08:11:47.037Z,7.60
2022-10-13T08:14:15.213Z,6.97
2022-10-13T08:16:48.710Z,6.95
2022-10-13T08:19:20.251Z,8.40
2022-10-13T08:22:06.632Z,7.70
2022-10-13T08:24:36.350Z,9.48
2022-10-13T08:27:04.817Z,6.75
2022-10-13T08:29:33.022Z,7.80
2022-10-13T08:32:02.582Z,8.15
2022-10-13T08:34:30.679Z,7.50
2022-10-13T08:37:00.250Z,12.55
2022-10-13T08:39:28.287Z,8.00
2022-10-13T08:41:57.793Z,7.78
2022-10-13T08:47:36.685Z,7.90
2022-10-13T08:50:11.669Z,11.00
2022-10-13T08:52:50.129Z,9.40
2022-10-13T08:55:24.788Z,9.38
2022-10-13T08:57:53.199Z,10.38
2022-10-13T09:00:21.526Z,11.52
2022-10-13T09:02:51.678Z,15.15
2022-10-13T09:05:29.027Z,10.73
2022-10-13T09:07:59.288Z,14.45
2022-10-13T09:10:27.435Z,12.60
2022-10-13T09:12:56.084Z,12.27
2022-10-13T09:15:24.340Z,10.73
2022-10-13T09:18:11.064Z,13.35
2022-10-13T09:20:39.335Z,10.68
2022-10-13T09:23:17.368Z,11.73
2022-10-13T09:25:47.851Z,12.13
2022-10-13T09:28:20.030Z,13.00
2022-10-13T09:30:48.749Z,12.35
2022-10-13T09:33:25.788Z,8.80
2022-10-13T09:36:13.112Z,9.30
2022-10-13T09:38:43.103Z,13.18
2022-10-13T09:41:18.338Z,9.47
2022-10-13T09:44:01.095Z,10.65
2022-10-13T09:46:32.733Z,19.17
2022-10-13T09:49:05.860Z,14.45
2022-10-13T09:51:39.912Z,18.48
2022-10-13T09:54:26.379Z,12.45
2022-10-13T09:56:59.282Z,10.07
2022-10-13T09:59:33.923Z,8.73
2022-10-13T10:02:18.044Z,10.85
2022-10-13T10:04:52.436Z,9.63
2022-10-13T10:07:24.143Z,8.90
2022-10-13T10:09:55.822Z,10.25
2022-10-13T10:12:28.049Z,9.77
2022-10-13T10:14:56.691Z,10.63
2022-10-13T10:17:30.511Z,9.82
2022-10-13T10:20:13.094Z,9.55
2022-10-13T10:22:50.571Z,11.00
2022-10-13T10:25:28.099Z,11.48
2022-10-13T10:28:11.824Z,12.00
2022-10-13T10:30:49.013Z,11.52
2022-10-13T10:33:23.087Z,8.65
2022-10-13T10:35:59.945Z,10.50
2022-10-13T10:38:36.736Z,9.68
2022-10-13T10:41:13.988Z,9.55
2022-10-13T10:43:55.105Z,11.88
2022-10-13T10:46:25.605Z,9.43
2022-10-13T10:48:58.267Z,10.07
2022-10-13T10:51:33.865Z,9.55
2022-10-13T10:54:17.814Z,11.02
2022-10-13T10:56:50.731Z,10.35
2022-10-13T10:59:27.913Z,8.80
2022-10-13T11:02:11.812Z,10.55
2022-10-13T11:04:44.896Z,10.52
2022-10-13T11:07:36.409Z,8.65
2022-10-13T11:10:21.116Z,9.55
2022-10-13T11:13:22.362Z,7.65
2022-10-13T11:15:50.888Z,9.60
2022-10-13T11:19:10.664Z,9.82
2022-10-13T11:22:12.776Z,7.93
2022-10-13T11:25:20.168Z,8.18
2022-10-13T11:27:49.677Z,9.00
2022-10-13T11:30:49.997Z,8.95
2022-10-13T11:33:52.452Z,8.55
2022-10-13T11:36:51.854Z,6.85
2022-10-13T11:40:12.200Z,10.02
2022-10-13T11:43:05.255Z,7.90
2022-10-13T11:45:58.208Z,7.30
2022-10-13T11:49:01.696Z,7.55
2022-10-13T11:51:41.309Z,10.95
2022-10-13T11:54:22.802Z,7.70
2022-10-13T11:56:53.273Z,8.52
2022-10-13T11:59:25.674Z,9.10
2022-10-13T12:01:58.927Z,8.93
2022-10-13T12:04:29.099Z,9.05
2022-10-13T12:07:01.774Z,15.27
2022-10-13T12:09:32.184Z,25.20
2022-10-13T12:12:03.616Z,23.13
2022-10-13T12:17:24.076Z,25.80
2022-10-13T12:19:52.897Z,25.00
2022-10-13T12:22:21.044Z,29.25
2022-10-13T12:24:59.893Z,24.42
2022-10-13T12:27:29.582Z,21.65
2022-10-13T12:29:59.202Z,17.95
2022-10-13T12:32:29.539Z,20.83
2022-10-13T12:34:57.953Z,23.33
2022-10-13T12:37:29.335Z,22.10
2022-10-13T12:39:59.307Z,23.98
2022-10-13T12:42:30.522Z,22.87
2022-10-13T12:45:01.641Z,20.27
2022-10-13T12:47:39.445Z,17.15
2022-10-13T12:50:32.890Z,23.95
2022-10-13T12:53:16.868Z,22.05
2022-10-13T12:55:58.891Z,19.77
2022-10-13T12:58:30.589Z,18.88
2022-10-13T13:01:10.996Z,20.63
2022-10-13T13:03:40.165Z,18.63
2022-10-13T13:06:23.260Z,20.15
2022-10-13T13:09:17.023Z,14.82
2022-10-13T13:11:45.199Z,22.38
2022-10-13T13:14:37.529Z,15.73
2022-10-13T13:17:12.173Z,16.33
2022-10-13T13:19:41.342Z,16.70
2022-10-13T13:22:09.867Z,18.02
2022-10-13T13:24:41.025Z,23.02
2022-10-13T13:27:21.838Z,15.68
2022-10-13T13:32:20.883Z,20.42
2022-10-13T13:34:49.395Z,15.93
2022-10-13T13:37:30.750Z,17.05
2022-10-13T13:39:59.496Z,18.73
2022-10-13T13:42:29.346Z,23.60
2022-10-13T13:44:57.640Z,12.55
2022-10-13T13:47:29.334Z,14.15
2022-10-13T13:49:58.215Z,17.65
2022-10-13T13:52:26.971Z,18.73
2022-10-13T13:54:56.159Z,15.88
2022-10-13T13:57:24.348Z,14.90
2022-10-13T13:59:52.556Z,16.83
2022-10-13T14:02:22.277Z,11.32
2022-10-13T14:04:52.063Z,14.93
2022-10-13T14:07:20.796Z,15.65
2022-10-13T14:09:49.177Z,17.00
2022-10-13T14:12:17.668Z,13.65
2022-10-13T14:14:45.964Z,14.38
2022-10-13T14:17:14.121Z,17.35
2022-10-13T14:19:43.156Z,21.13
2022-10-13T14:22:12.595Z,18.77
2022-10-13T14:24:40.705Z,19.80
2022-10-13T14:27:09.061Z,23.40
2022-10-13T14:29:37.504Z,15.38
2022-10-13T14:32:06.151Z,14.50
2022-10-13T14:34:34.290Z,22.98
2022-10-13T14:37:02.387Z,18.83
2022-10-13T14:39:31.851Z,17.13
2022-10-13T14:42:00.019Z,16.83
2022-10-13T14:44:28.218Z,24.40
2022-10-13T14:46:56.365Z,17.08
2022-10-13T14:49:24.476Z,23.48
2022-10-13T14:51:52.629Z,24.98
2022-10-13T14:54:20.694Z,20.50
2022-10-13T14:56:50.185Z,16.20
2022-10-13T14:59:18.643Z,14.85
2022-10-13T15:01:48.248Z,17.10
2022-10-13T15:04:16.446Z,15.32
2022-10-13T15:06:44.617Z,15.82
2022-10-13T15:09:13.028Z,20.20
2022-10-13T15:11:41.140Z,19.30
2022-10-13T15:14:10.873Z,22.95
2022-10-13T15:16:39.141Z,12.55
2022-10-13T15:19:07.232Z,19.25
2022-10-13T15:21:35.416Z,19.88
2022-10-13T15:24:03.611Z,16.05
2022-10-13T15:26:31.975Z,20.60
2022-10-13T15:29:00.079Z,17.83
2022-10-13T15:31:30.960Z,14.30
2022-10-13T15:36:27.137Z,17.48
2022-10-13T15:38:55.217Z,21.33
2022-10-13T15:41:25.501Z,16.58
2022-10-13T15:43:53.795Z,19.70
2022-10-13T15:46:26.240Z,15.90
2022-10-13T15:48:55.771Z,15.75
2022-10-13T15:51:26.831Z,21.15
2022-10-13T15:53:55.237Z,14.55
2022-10-13T15:56:23.610Z,16.42
2022-10-13T15:58:51.768Z,15.73
2022-10-13T16:01:20.061Z,16.13
2022-10-13T16:03:48.243Z,14.68
2022-10-13T16:06:17.744Z,17.27
2022-10-13T16:08:45.841Z,15.85
2022-10-13T16:11:15.677Z,14.13
2022-10-13T16:13:46.599Z,12.38
2022-10-13T16:18:43.698Z,14.88
2022-10-13T16:21:18.279Z,12.02
2022-10-13T16:23:48.569Z,13.40
2022-10-13T16:26:18.295Z,15.82
2022-10-13T16:28:47.054Z,12.13
2022-10-13T16:31:17.481Z,13.68
2022-10-13T16:33:46.687Z,17.38
2022-10-13T16:36:17.093Z,17.08
2022-10-13T16:38:45.981Z,15.02
2022-10-13T16:41:18.132Z,11.75
2022-10-13T16:43:47.176Z,14.63
2022-10-13T16:46:16.591Z,18.08
2022-10-13T16:48:46.383Z,16.90
2022-10-13T16:51:16.513Z,16.27
2022-10-13T16:53:48.029Z,13.77
2022-10-13T16:56:21.923Z,15.55
2022-10-13T16:58:50.674Z,11.68
2022-10-13T17:01:18.829Z,14.70
2022-10-13T17:03:48.276Z,14.15
2022-10-13T17:06:17.103Z,15.27
2022-10-13T17:08:45.624Z,16.65
2022-10-13T17:11:19.444Z,11.02
2022-10-13T17:13:47.924Z,12.63
2022-10-13T17:16:16.494Z,13.10
2022-10-13T17:18:44.677Z,11.00
2022-10-13T17:21:15.057Z,15.13
2022-10-13T17:23:48.134Z,11.40
2022-10-13T17:26:19.321Z,14.75
2022-10-13T17:28:47.927Z,13.05
2022-10-13T17:31:18.062Z,12.95
2022-10-13T17:33:46.937Z,12.87
2022-10-13T17:36:16.684Z,14.68
2022-10-13T17:38:45.376Z,12.15
2022-10-13T17:41:14.133Z,15.27
2022-10-13T17:43:44.413Z,14.18
2022-10-13T17:49:03.133Z,11.23
2022-10-13T17:51:31.708Z,12.07
2022-10-13T17:54:01.189Z,12.50
2022-10-13T17:56:30.453Z,13.25
2022-10-13T17:59:00.906Z,11.15
2022-10-13T18:01:31.652Z,11.70
2022-10-13T18:06:32.562Z,13.88
2022-10-13T18:09:12.228Z,10.95
2022-10-13T18:11:43.329Z,12.85
2022-10-13T18:14:16.670Z,12.10
2022-10-13T18:16:44.821Z,13.48
2022-10-13T18:19:12.914Z,12.38
2022-10-13T18:21:41.116Z,12.00
2022-10-13T18:24:11.206Z,11.75
2022-10-13T18:26:39.594Z,20.40
2022-10-13T18:29:09.554Z,16.77
2022-10-13T18:31:40.497Z,16.05
2022-10-13T18:36:40.429Z,12.98
2022-10-13T18:39:11.427Z,16.02
2022-10-13T18:44:08.009Z,17.42
2022-10-13T18:46:38.575Z,14.32
2022-10-13T18:49:08.800Z,11.30
2022-10-13T18:51:36.912Z,12.47
2022-10-13T18:54:06.608Z,13.07
2022-10-13T18:56:36.992Z,14.23
2022-10-13T18:59:06.860Z,13.52
2022-10-13T19:01:37.150Z,14.63
2022-10-13T19:04:07.036Z,12.13
2022-10-13T19:06:35.545Z,12.90
2022-10-13T19:09:05.896Z,14.48
2022-10-13T19:11:34.833Z,12.23
2022-10-13T19:14:03.094Z,9.75
2022-10-13T19:16:32.975Z,11.13
2022-10-13T19:19:01.043Z,13.00
2022-10-13T19:21:30.539Z,10.85
2022-10-13T19:24:00.848Z,12.27
2022-10-13T19:26:32.420Z,13.32
2022-10-13T19:29:02.814Z,12.75
2022-10-13T19:31:32.504Z,12.18
2022-10-13T19:34:01.378Z,13.73
2022-10-13T19:36:33.129Z,12.13
2022-10-13T19:39:03.833Z,12.93
2022-10-13T19:44:01.460Z,12.80
2022-10-13T19:46:29.680Z,12.77
2022-10-13T19:48:57.855Z,10.38
2022-10-13T19:51:25.941Z,10.68
2022-10-13T19:53:55.486Z,12.65
2022-10-13T19:56:26.059Z,11.10
2022-10-13T19:58:55.011Z,13.30
2022-10-13T20:01:24.025Z,11.88
2022-10-13T20:03:53.649Z,12.30
2022-10-13T20:06:22.505Z,12.27
2022-10-13T20:08:53.744Z,11.50
2022-10-13T20:11:24.489Z,11.15
2022-10-13T20:13:53.604Z,11.48
2022-10-13T20:16:23.565Z,13.15
2022-10-13T20:18:55.890Z,10.95
2022-10-13T20:21:24.925Z,11.90
2022-10-13T20:23:53.660Z,11.23
2022-10-13T20:26:24.104Z,11.45
2022-10-13T20:28:53.181Z,11.02
2022-10-13T20:31:23.005Z,13.82
2022-10-13T20:33:55.149Z,12.90
2022-10-13T20:36:24.585Z,13.02
2022-10-13T20:38:52.925Z,12.27
2022-10-13T20:41:24.732Z,11.43
2022-10-13T20:43:54.119Z,12.48
2022-10-13T20:46:23.651Z,13.55
2022-10-13T20:51:42.644Z,13.88
2022-10-13T20:54:11.581Z,13.70
2022-10-13T20:56:41.791Z,10.43
2022-10-13T20:59:11.876Z,11.03
2022-10-13T21:01:40.001Z,12.37
2022-10-13T21:04:08.190Z,10.73
2022-10-13T21:06:36.929Z,11.15
2022-10-13T21:09:06.442Z,10.63
2022-10-13T21:11:34.827Z,10.60
2022-10-13T21:14:06.995Z,9.98
2022-10-13T21:16:35.870Z,11.07
2022-10-13T21:19:04.593Z,14.70
2022-10-13T21:21:34.571Z,11.32
2022-10-13T21:24:05.623Z,11.52
2022-10-13T21:26:34.533Z,12.75
2022-10-13T21:29:04.162Z,11.93
2022-10-13T21:31:32.467Z,10.07
2022-10-13T21:34:01.008Z,9.73
2022-10-13T21:36:30.976Z,13.20
2022-10-13T21:39:01.173Z,10.05
2022-10-13T21:41:29.627Z,10.97
2022-10-13T21:43:58.292Z,12.30
2022-10-13T21:46:29.543Z,10.35
2022-10-13T21:48:59.337Z,11.02
2022-10-13T21:51:29.624Z,13.52
2022-10-13T21:53:59.417Z,10.80
2022-10-13T21:56:28.649Z,9.65
2022-10-13T21:58:57.115Z,11.90
2022-10-13T22:01:26.932Z,10.02
2022-10-13T22:03:56.378Z,11.18
2022-10-13T22:06:25.362Z,11.35
2022-10-13T22:08:54.916Z,11.18
2022-10-13T22:11:23.881Z,10.93
2022-10-13T22:13:52.576Z,9.90
2022-10-13T22:16:29.913Z,10.88
2022-10-13T22:18:59.743Z,9.90
2022-10-13T22:21:30.762Z,9.15
2022-10-13T22:24:00.407Z,10.02
2022-10-13T22:26:29.672Z,10.25
2022-10-13T22:28:59.085Z,9.18
2022-10-13T22:31:28.309Z,8.20
2022-10-13T22:33:56.620Z,9.68
2022-10-13T22:36:27.491Z,10.30
2022-10-13T22:41:25.188Z,9.93
2022-10-13T22:43:54.977Z,9.98
2022-10-13T22:46:27.531Z,10.63
2022-10-13T22:48:56.559Z,10.38
2022-10-13T22:51:28.259Z,11.45
2022-10-13T22:53:56.984Z,9.30
2022-10-13T22:56:26.967Z,8.70
2022-10-13T22:58:57.437Z,10.23
2022-10-13T23:01:25.948Z,10.88
2022-10-13T23:03:55.258Z,9.65
2022-10-13T23:06:26.372Z,9.05
2022-10-13T23:08:54.680Z,9.48
2022-10-13T23:11:23.426Z,10.38
2022-10-13T23:13:51.800Z,9.63
2022-10-13T23:16:22.639Z,10.15
2022-10-13T23:18:51.302Z,9.95
2022-10-13T23:21:21.596Z,8.88
2022-10-13T23:23:55.611Z,10.73
2022-10-13T23:26:23.907Z,10.32
2022-10-13T23:28:52.321Z,10.80
2022-10-13T23:31:20.459Z,10.50
2022-10-13T23:33:48.820Z,12.30
2022-10-13T23:36:19.629Z,9.02
2022-10-13T23:38:47.867Z,9.35
2022-10-13T23:41:19.179Z,10.10
2022-10-13T23:43:47.289Z,9.45
2022-10-13T23:46:15.381Z,10.85
2022-10-13T23:48:43.445Z,10.68
2022-10-13T23:51:14.423Z,8.43
2022-10-13T23:56:12.105Z,10.23
2022-10-13T23:58:43.189Z,8.65
